Morris, IN (47033)

6:02 PM EST on February 27, 2015 (GMT -0500)
KINBATES2 | Change Station
CLOSE
Current Station
Personal Weather Station
Location: Batesville, IN
Elevation: 974 ft
Nearby Weather Stations

Elev 974 ft 39.29 °N, 85.23 °W | Updated 6 minutes ago

Clear
Clear
18.4 °F
Feels Like 18 °F
N
1.0
Wind Variable Wind from WNW
Gusts 1.0 mph

Today
High -- | Low -- °F
--% Chance of Precip.
Yesterday
High -- | Low -- °F
Precip. -- in
7:16 AM 6:30 PM
Waxing Gibbous, 72% visible
Pressure 30.63 in
Visibility 10.0 miles
Clouds Few 4700 ft
Scattered Clouds 25000 ft
Windchill 18 °F
Dew Point 2 °F
Humidity 48%
Rainfall 0.00 in
Snow Depth Not available.
UV 0 out of 12
Pollen .60 out of 12
Air Quality Not available.
Flu Activity Not available.
METAR KCVG 272252Z 34005KT 10SM FEW047 SCT250 M06/M17 A3058 RMK AO2 SLP370 T10611167

More Conditions Fewer Conditions

Pressure 30.63 in
Visibility 10.0 miles
Clouds Few 4700 ft
Scattered Clouds 25000 ft
Windchill 18 °F
Dew Point 2 °F
Humidity 48%
Rainfall 0.00 in
Snow Depth Not available.
UV 0 out of 12
Pollen .60 out of 12
Air Quality Not available.
Flu Activity Not available.
METAR KCVG 272252Z 34005KT 10SM FEW047 SCT250 M06/M17 A3058 RMK AO2 SLP370 T10611167

More Conditions Fewer Conditions

10-Day Weather Forecast

Almanac

Astronomy

Feb. 27, 2015 Rise Set
Actual Time
Civil Twilight
Nautical Twilight
Astronomical Twilight
Moon
Length of Visible Light
Length of Day
Tomorrow will be .
, % of the Moon is Illuminated

Today's Extremes

State Highs State Lows

Community

WunderPhotos

Upload Photos

1,800,873 photos uploaded!

WunderBlogs® & News

Nearby

Air Quality

  Air Quality AQ Index Pollutant
Not available.

Snow Depth

Station Depth Elevation

Earthquake Activity

City Distance Mag. Time & Date
Minimum magnitude displayed is 2.5.

Coastal Water Temperatures

Place Temperature

Nearby Weather Stations